createdAt,value
2018-07-21T00:00:23.728Z,7.40
2018-07-21T00:02:51.913Z,8.53
2018-07-21T00:05:20.100Z,7.63
2018-07-21T00:07:48.295Z,7.60
2018-07-21T00:10:16.501Z,7.90
2018-07-21T00:12:44.713Z,7.43
2018-07-21T00:15:12.936Z,7.30
2018-07-21T00:17:41.134Z,6.63
2018-07-21T00:20:09.366Z,6.70
2018-07-21T00:22:37.549Z,7.50
2018-07-21T00:25:05.744Z,7.53
2018-07-21T00:27:33.954Z,7.53
2018-07-21T00:30:02.150Z,7.20
2018-07-21T00:32:30.414Z,6.70
2018-07-21T00:34:58.599Z,6.90
2018-07-21T00:37:26.805Z,6.07
2018-07-21T00:39:55.011Z,6.87
2018-07-21T00:42:23.217Z,6.20
2018-07-21T00:44:51.804Z,6.47
2018-07-21T00:47:20.046Z,6.03
2018-07-21T00:49:48.284Z,5.90
2018-07-21T00:52:16.580Z,6.43
2018-07-21T00:54:44.809Z,5.73
2018-07-21T00:57:13.251Z,5.57
2018-07-21T00:59:41.443Z,6.30
2018-07-21T01:02:10.040Z,5.77
2018-07-21T01:04:38.254Z,6.20
2018-07-21T01:07:06.446Z,6.50
2018-07-21T01:09:34.656Z,7.33
2018-07-21T01:12:02.851Z,5.60
2018-07-21T01:14:31.062Z,6.60
2018-07-21T01:16:59.253Z,5.80
2018-07-21T01:19:27.730Z,5.70
2018-07-21T01:21:55.933Z,5.57
2018-07-21T01:24:24.124Z,6.30
2018-07-21T01:26:52.355Z,5.37
2018-07-21T01:29:21.009Z,5.70
2018-07-21T01:31:49.225Z,5.57
2018-07-21T01:34:17.412Z,6.43
2018-07-21T01:36:45.604Z,6.23
2018-07-21T01:39:13.797Z,5.70
2018-07-21T01:41:41.989Z,5.97
2018-07-21T01:44:10.205Z,6.13
2018-07-21T01:46:38.408Z,6.47
2018-07-21T01:49:06.604Z,6.07
2018-07-21T01:51:34.799Z,6.97
2018-07-21T01:54:02.997Z,6.30
2018-07-21T01:56:31.182Z,5.67
2018-07-21T01:58:59.136Z,4.97
2018-07-21T02:01:27.365Z,6.20
2018-07-21T02:03:55.753Z,5.80
2018-07-21T02:06:23.971Z,6.00
2018-07-21T02:08:52.193Z,6.23
2018-07-21T02:11:20.393Z,5.87
2018-07-21T02:13:48.593Z,5.20
2018-07-21T02:16:16.782Z,4.87
2018-07-21T02:18:44.986Z,4.80
2018-07-21T02:21:13.473Z,4.90
2018-07-21T02:23:41.661Z,4.73
2018-07-21T02:26:09.936Z,4.40
2018-07-21T02:28:38.121Z,4.10
2018-07-21T02:31:06.374Z,4.83
2018-07-21T02:33:34.570Z,5.10
2018-07-21T02:36:02.783Z,4.80
2018-07-21T02:38:30.992Z,5.30
2018-07-21T02:40:59.181Z,5.40
2018-07-21T02:43:27.393Z,5.10
2018-07-21T02:45:55.622Z,5.33
2018-07-21T02:48:23.937Z,5.20
2018-07-21T02:50:52.172Z,5.20
2018-07-21T02:53:20.354Z,5.03
2018-07-21T02:55:48.546Z,4.70
2018-07-21T02:58:16.741Z,5.00
2018-07-21T03:00:44.942Z,5.20
2018-07-21T03:03:13.180Z,5.30
2018-07-21T03:05:41.394Z,5.77
2018-07-21T03:08:09.618Z,5.73
2018-07-21T03:10:38.006Z,6.97
2018-07-21T03:13:06.187Z,5.50
2018-07-21T03:15:34.411Z,5.03
2018-07-21T03:18:02.580Z,5.67
2018-07-21T03:20:30.874Z,6.30
2018-07-21T03:22:59.062Z,5.93
2018-07-21T03:25:27.280Z,7.10
2018-07-21T03:27:55.468Z,6.03
2018-07-21T03:30:23.682Z,5.13
2018-07-21T03:32:52.179Z,5.80
2018-07-21T03:35:20.402Z,6.37
2018-07-21T03:37:48.606Z,5.77
2018-07-21T03:40:16.828Z,5.63
2018-07-21T03:42:45.067Z,5.40
2018-07-21T03:45:13.274Z,5.50
2018-07-21T03:47:41.517Z,6.13
2018-07-21T03:50:09.713Z,6.30
2018-07-21T03:52:37.925Z,5.50
2018-07-21T03:55:06.260Z,5.80
2018-07-21T03:57:34.420Z,7.10
2018-07-21T04:00:02.635Z,6.27
2018-07-21T04:02:30.830Z,6.50
2018-07-21T04:04:59.026Z,6.07
2018-07-21T04:07:27.225Z,6.80
2018-07-21T04:09:55.413Z,6.60
2018-07-21T04:12:23.645Z,6.50
2018-07-21T04:14:51.845Z,6.00
2018-07-21T04:17:25.335Z,6.40
2018-07-21T04:19:53.845Z,7.57
2018-07-21T04:22:22.833Z,7.00
2018-07-21T04:24:51.037Z,7.47
2018-07-21T04:27:21.219Z,7.57
2018-07-21T04:29:49.464Z,7.00
2018-07-21T04:32:17.685Z,6.90
2018-07-21T04:34:45.904Z,6.60
2018-07-21T04:37:14.106Z,7.00
2018-07-21T04:39:42.291Z,7.23
2018-07-21T04:42:10.521Z,7.27
2018-07-21T04:44:38.978Z,7.27
2018-07-21T04:47:07.213Z,7.10
2018-07-21T04:49:35.424Z,7.77
2018-07-21T04:52:03.648Z,7.67
2018-07-21T04:54:31.855Z,8.90
2018-07-21T04:57:00.058Z,7.70
2018-07-21T04:59:28.077Z,8.03
2018-07-21T05:01:56.300Z,7.50
2018-07-21T05:04:24.466Z,8.03
2018-07-21T05:06:52.670Z,8.70
2018-07-21T05:09:20.847Z,8.57
2018-07-21T05:11:49.067Z,9.60
2018-07-21T05:14:17.261Z,9.47
2018-07-21T05:16:45.467Z,9.90
2018-07-21T05:19:13.683Z,9.67
2018-07-21T05:21:42.128Z,10.30
2018-07-21T05:24:10.346Z,10.87
2018-07-21T05:26:38.542Z,11.50
2018-07-21T05:29:06.745Z,11.70
2018-07-21T05:31:35.105Z,11.50
2018-07-21T05:34:03.331Z,11.90
2018-07-21T05:36:31.540Z,12.30
2018-07-21T05:38:59.762Z,13.30
2018-07-21T05:41:27.994Z,12.33
2018-07-21T05:43:56.388Z,10.50
2018-07-21T05:46:24.613Z,12.00
2018-07-21T05:48:52.847Z,12.50
2018-07-21T05:51:21.055Z,10.40
2018-07-21T05:53:49.261Z,11.60
2018-07-21T05:56:17.465Z,11.20
2018-07-21T05:58:45.435Z,10.03
2018-07-21T06:01:13.658Z,9.17
2018-07-21T06:03:41.976Z,11.20
2018-07-21T06:06:10.430Z,9.07
2018-07-21T06:08:38.647Z,9.70
2018-07-21T06:11:06.902Z,9.17
2018-07-21T06:13:35.071Z,8.93
2018-07-21T06:16:03.306Z,8.37
2018-07-21T06:18:31.520Z,8.43
2018-07-21T06:20:59.690Z,9.50
2018-07-21T06:23:27.924Z,9.00
2018-07-21T06:25:56.135Z,8.60
2018-07-21T06:28:24.594Z,9.20
2018-07-21T06:30:52.861Z,8.87
2018-07-21T06:33:21.783Z,9.00
2018-07-21T06:35:49.957Z,9.30
2018-07-21T06:38:18.196Z,9.53
2018-07-21T06:40:46.398Z,10.73
2018-07-21T06:43:14.604Z,8.93
2018-07-21T06:45:42.821Z,9.30
2018-07-21T06:48:11.021Z,8.37
2018-07-21T06:50:39.380Z,9.30
2018-07-21T06:53:07.601Z,9.57
2018-07-21T06:55:35.806Z,8.37
2018-07-21T06:58:04.039Z,9.40
2018-07-21T07:00:32.252Z,10.10
2018-07-21T07:03:00.462Z,9.20
2018-07-21T07:05:28.667Z,8.80
2018-07-21T07:07:56.857Z,8.80
2018-07-21T07:10:25.129Z,7.50
2018-07-21T07:12:53.060Z,6.93
2018-07-21T07:15:21.270Z,6.30
2018-07-21T07:17:49.505Z,6.40
2018-07-21T07:20:17.725Z,6.57
2018-07-21T07:22:45.690Z,6.13
2018-07-21T07:25:13.894Z,5.70
2018-07-21T07:27:42.105Z,6.83
2018-07-21T07:30:10.313Z,5.83
2018-07-21T07:32:38.528Z,5.93
2018-07-21T07:35:06.919Z,5.43
2018-07-21T07:37:35.138Z,5.70
2018-07-21T07:40:03.352Z,4.93
2018-07-21T07:42:31.572Z,4.70
2018-07-21T07:44:59.777Z,4.90
2018-07-21T07:47:27.975Z,4.60
2018-07-21T07:49:56.937Z,4.20
2018-07-21T07:52:25.130Z,5.07
2018-07-21T07:54:53.336Z,5.03
2018-07-21T07:57:21.643Z,4.40
2018-07-21T07:59:49.843Z,4.60
2018-07-21T08:02:18.101Z,4.60
2018-07-21T08:04:46.306Z,5.23
2018-07-21T08:07:14.509Z,4.10
2018-07-21T08:09:42.705Z,3.60
2018-07-21T08:12:10.904Z,3.30
2018-07-21T08:14:39.312Z,2.80
2018-07-21T08:17:07.261Z,3.33
2018-07-21T08:19:35.512Z,3.40
2018-07-21T08:22:03.705Z,5.37
2018-07-21T08:24:31.933Z,2.80
2018-07-21T08:27:00.134Z,2.30
2018-07-21T08:29:28.375Z,2.80
2018-07-21T08:31:56.557Z,2.60
2018-07-21T08:34:24.796Z,3.00
2018-07-21T08:36:52.736Z,2.60
2018-07-21T08:39:20.930Z,3.30
2018-07-21T08:41:48.965Z,3.43
2018-07-21T08:44:17.193Z,3.13
2018-07-21T08:46:45.370Z,3.30
2018-07-21T08:49:13.586Z,3.40
2018-07-21T08:51:41.797Z,3.67
2018-07-21T08:54:10.018Z,5.00
2018-07-21T08:56:38.270Z,3.60
2018-07-21T08:59:06.498Z,3.93
2018-07-21T09:01:34.705Z,3.77
2018-07-21T09:04:03.098Z,3.43
2018-07-21T09:06:31.290Z,4.40
2018-07-21T09:08:59.478Z,4.47
2018-07-21T09:11:27.697Z,5.10
2018-07-21T09:13:55.635Z,4.70
2018-07-21T09:16:23.837Z,4.00
2018-07-21T09:18:52.036Z,4.37
2018-07-21T09:21:20.269Z,3.50
2018-07-21T09:23:48.461Z,3.83
2018-07-21T09:26:16.696Z,3.93
2018-07-21T09:28:44.937Z,4.40
2018-07-21T09:31:13.134Z,3.90
2018-07-21T09:33:41.348Z,3.50
2018-07-21T09:36:09.591Z,4.00
2018-07-21T09:38:37.810Z,3.93
2018-07-21T09:41:06.047Z,3.80
2018-07-21T09:43:34.256Z,3.30
2018-07-21T09:46:02.549Z,8.20
2018-07-21T09:48:30.977Z,4.00
2018-07-21T09:50:59.174Z,4.03
2018-07-21T09:53:27.411Z,3.60
2018-07-21T09:55:55.690Z,4.63
2018-07-21T09:58:23.799Z,3.83
2018-07-21T10:00:57.299Z,5.20
2018-07-21T10:03:25.539Z,4.80
2018-07-21T10:05:53.790Z,4.70
2018-07-21T10:08:22.098Z,4.80
2018-07-21T10:10:50.421Z,4.70
2018-07-21T10:13:18.653Z,4.00
2018-07-21T10:15:46.866Z,5.07
2018-07-21T10:18:15.073Z,4.97
2018-07-21T10:20:43.317Z,5.73
2018-07-21T10:23:11.546Z,7.60
2018-07-21T10:25:45.165Z,6.20
2018-07-21T10:28:18.870Z,5.03
2018-07-21T10:30:47.014Z,6.60
2018-07-21T10:33:15.255Z,6.57
2018-07-21T10:35:43.430Z,5.33
2018-07-21T10:38:11.682Z,4.90
2018-07-21T10:40:39.921Z,5.67
2018-07-21T10:43:08.112Z,5.67
2018-07-21T10:45:36.346Z,4.83
2018-07-21T10:48:04.573Z,6.07
2018-07-21T10:50:32.775Z,5.20
2018-07-21T10:53:01.295Z,5.20
2018-07-21T10:55:29.501Z,5.47
2018-07-21T10:57:57.905Z,4.73
2018-07-21T11:00:26.144Z,5.47
2018-07-21T11:02:54.392Z,4.50
2018-07-21T11:05:22.628Z,5.80
2018-07-21T11:07:50.877Z,4.07
2018-07-21T11:10:19.697Z,4.50
2018-07-21T11:12:47.652Z,4.73
2018-07-21T11:15:15.975Z,4.83
2018-07-21T11:17:44.271Z,4.50
2018-07-21T11:20:12.530Z,4.27
2018-07-21T11:22:40.741Z,4.30
2018-07-21T11:25:08.998Z,4.87
2018-07-21T11:27:37.216Z,4.40
2018-07-21T11:30:06.005Z,4.87
2018-07-21T11:32:34.275Z,4.80
2018-07-21T11:35:02.463Z,5.20
2018-07-21T11:37:30.725Z,6.00
2018-07-21T11:39:58.942Z,4.87
2018-07-21T11:42:27.141Z,4.40
2018-07-21T11:44:55.408Z,4.43
2018-07-21T11:47:23.614Z,5.13
2018-07-21T11:49:51.825Z,4.87
2018-07-21T11:52:20.038Z,4.23
2018-07-21T11:54:48.290Z,4.70
2018-07-21T11:57:16.566Z,4.60
2018-07-21T11:59:44.886Z,8.20
2018-07-21T12:02:13.240Z,4.80
2018-07-21T12:04:41.454Z,4.97
2018-07-21T12:07:09.758Z,5.07
2018-07-21T12:09:37.974Z,4.80
2018-07-21T12:12:06.253Z,5.50
2018-07-21T12:14:34.489Z,5.83
2018-07-21T12:17:02.701Z,5.10
2018-07-21T12:19:30.929Z,5.20
2018-07-21T12:21:58.958Z,5.20
2018-07-21T12:24:27.211Z,5.43
2018-07-21T12:26:55.397Z,5.77
2018-07-21T12:29:23.605Z,4.43
2018-07-21T12:31:51.836Z,5.30
2018-07-21T12:34:20.084Z,4.23
2018-07-21T12:36:48.254Z,5.73
2018-07-21T12:39:16.474Z,4.20
2018-07-21T12:41:44.717Z,4.50
2018-07-21T12:44:12.921Z,4.93
2018-07-21T12:46:41.153Z,4.43
2018-07-21T12:49:09.373Z,4.47
2018-07-21T12:51:37.616Z,5.17
2018-07-21T12:54:05.877Z,5.33
2018-07-21T12:56:34.083Z,4.23
2018-07-21T12:59:02.298Z,6.10
2018-07-21T13:01:30.523Z,5.90
2018-07-21T13:03:58.741Z,5.20
2018-07-21T13:06:27.105Z,4.90
2018-07-21T13:08:55.322Z,5.23
2018-07-21T13:11:23.536Z,4.23
2018-07-21T13:13:51.765Z,4.83
2018-07-21T13:16:20.030Z,5.00
2018-07-21T13:18:48.251Z,5.03
2018-07-21T13:21:16.490Z,4.50
2018-07-21T13:23:44.669Z,5.60
2018-07-21T13:26:12.935Z,5.30
2018-07-21T13:28:41.297Z,5.73
2018-07-21T13:31:09.529Z,4.63
2018-07-21T13:33:37.777Z,5.40
2018-07-21T13:36:06.025Z,5.03
2018-07-21T13:38:34.237Z,5.27
2018-07-21T13:41:02.486Z,5.53
2018-07-21T13:43:30.925Z,5.33
2018-07-21T13:45:59.122Z,5.57
2018-07-21T13:48:27.517Z,5.13
2018-07-21T13:50:55.785Z,4.70
2018-07-21T13:53:24.032Z,5.07
2018-07-21T13:55:52.255Z,5.27
2018-07-21T13:58:20.486Z,4.80
2018-07-21T14:00:48.730Z,5.60
2018-07-21T14:03:16.925Z,5.40
2018-07-21T14:05:45.127Z,5.40
2018-07-21T14:08:13.375Z,6.37
2018-07-21T14:10:41.590Z,5.93
2018-07-21T14:13:09.946Z,4.90
2018-07-21T14:15:38.531Z,5.07
2018-07-21T14:18:07.263Z,5.13
2018-07-21T14:20:35.684Z,5.20
2018-07-21T14:23:03.861Z,4.90
2018-07-21T14:25:32.081Z,5.07
2018-07-21T14:28:00.341Z,5.40
2018-07-21T14:30:28.565Z,5.40
2018-07-21T14:32:56.751Z,5.47
2018-07-21T14:35:25.016Z,4.83
2018-07-21T14:37:53.231Z,5.20
2018-07-21T14:40:21.469Z,4.83
2018-07-21T14:42:49.695Z,5.17
2018-07-21T14:45:17.894Z,5.60
2018-07-21T14:47:45.846Z,4.40
2018-07-21T14:50:14.244Z,5.00
2018-07-21T14:52:42.489Z,4.97
2018-07-21T14:55:10.746Z,5.17
2018-07-21T14:57:39.269Z,5.70
2018-07-21T15:00:07.506Z,5.27
2018-07-21T15:02:36.132Z,6.33
2018-07-21T15:05:04.416Z,5.70
2018-07-21T15:07:32.726Z,6.10
2018-07-21T15:10:00.945Z,5.47
2018-07-21T15:12:29.160Z,5.77
2018-07-21T15:14:57.361Z,5.47
2018-07-21T15:17:25.585Z,5.10
2018-07-21T15:19:53.593Z,7.60
2018-07-21T15:22:21.816Z,5.13
2018-07-21T15:24:50.057Z,6.30
2018-07-21T15:27:18.342Z,8.43
2018-07-21T15:29:46.489Z,5.83
2018-07-21T15:32:14.697Z,5.80
2018-07-21T15:34:42.907Z,5.87
2018-07-21T15:37:11.157Z,5.60
2018-07-21T15:39:39.424Z,6.63
2018-07-21T15:42:07.609Z,5.90
2018-07-21T15:44:35.817Z,6.40
2018-07-21T15:47:04.077Z,6.17
2018-07-21T15:49:32.297Z,6.60
2018-07-21T15:52:00.497Z,7.00
2018-07-21T15:54:28.725Z,7.03
2018-07-21T15:56:56.918Z,6.90
2018-07-21T15:59:25.158Z,7.10
2018-07-21T16:01:53.386Z,6.40
2018-07-21T16:04:21.621Z,6.37
2018-07-21T16:06:49.845Z,6.97
2018-07-21T16:09:18.073Z,6.90
2018-07-21T16:11:46.325Z,6.57
2018-07-21T16:14:14.545Z,6.50
2018-07-21T16:16:42.762Z,5.40
2018-07-21T16:19:10.945Z,5.17
2018-07-21T16:21:39.168Z,4.80
2018-07-21T16:24:07.566Z,5.53
2018-07-21T16:26:35.789Z,5.33
2018-07-21T16:29:04.066Z,5.50
2018-07-21T16:31:32.325Z,5.10
2018-07-21T16:34:00.550Z,4.80
2018-07-21T16:36:28.853Z,4.43
2018-07-21T16:38:57.117Z,3.97
2018-07-21T16:41:25.318Z,4.10
2018-07-21T16:43:53.587Z,3.77
2018-07-21T16:46:22.127Z,4.00
2018-07-21T16:48:50.458Z,4.47
2018-07-21T16:51:18.694Z,4.13
2018-07-21T16:53:46.898Z,5.07
2018-07-21T16:56:15.098Z,5.03
2018-07-21T16:58:43.317Z,4.37
2018-07-21T17:01:11.525Z,4.90
2018-07-21T17:03:39.723Z,4.63
2018-07-21T17:06:07.908Z,4.03
2018-07-21T17:08:36.250Z,4.50
2018-07-21T17:11:04.494Z,4.87
2018-07-21T17:13:32.709Z,5.00
2018-07-21T17:16:00.986Z,4.23
2018-07-21T17:18:29.219Z,5.60
2018-07-21T17:20:57.490Z,6.20
2018-07-21T17:23:25.697Z,6.60
2018-07-21T17:25:53.929Z,6.40
2018-07-21T17:28:22.387Z,6.50
2018-07-21T17:30:50.721Z,6.17
2018-07-21T17:33:18.975Z,5.83
2018-07-21T17:35:47.233Z,5.80
2018-07-21T17:38:15.403Z,5.83
2018-07-21T17:40:43.836Z,7.20
2018-07-21T17:43:12.082Z,6.17
2018-07-21T17:45:40.311Z,6.37
2018-07-21T17:48:08.266Z,6.70
2018-07-21T17:50:36.482Z,6.60
2018-07-21T17:53:04.939Z,5.73
2018-07-21T17:55:33.164Z,6.93
2018-07-21T17:58:01.394Z,7.73
2018-07-21T18:00:29.599Z,11.03
2018-07-21T18:02:57.948Z,9.80
2018-07-21T18:05:26.515Z,8.70
2018-07-21T18:07:54.657Z,9.90
2018-07-21T18:10:22.967Z,11.47
2018-07-21T18:12:51.215Z,11.40
2018-07-21T18:15:19.446Z,11.47
2018-07-21T18:17:47.662Z,8.10
2018-07-21T18:20:15.959Z,8.60
2018-07-21T18:22:44.097Z,9.20
2018-07-21T18:25:12.368Z,9.23
2018-07-21T18:27:40.605Z,6.30
2018-07-21T18:30:08.818Z,5.83
2018-07-21T18:32:37.080Z,5.17
2018-07-21T18:35:05.302Z,5.73
2018-07-21T18:37:33.780Z,5.43
2018-07-21T18:40:02.094Z,4.43
2018-07-21T18:42:30.223Z,4.00
2018-07-21T18:44:58.421Z,4.40
2018-07-21T18:47:26.642Z,4.40
2018-07-21T18:49:55.132Z,4.50
2018-07-21T18:52:23.329Z,4.43
2018-07-21T18:54:51.556Z,4.90
2018-07-21T18:57:19.777Z,4.67
2018-07-21T18:59:48.164Z,4.87
2018-07-21T19:02:17.150Z,4.57
2018-07-21T19:04:45.381Z,4.40
2018-07-21T19:07:13.601Z,4.83
2018-07-21T19:09:41.792Z,4.10
2018-07-21T19:12:15.524Z,4.50
2018-07-21T19:14:43.734Z,3.87
2018-07-21T19:17:12.101Z,4.33
2018-07-21T19:19:45.611Z,5.30
2018-07-21T19:22:13.803Z,5.10
2018-07-21T19:24:42.050Z,5.23
2018-07-21T19:27:15.766Z,5.50
2018-07-21T19:29:43.958Z,4.83
2018-07-21T19:32:17.630Z,5.37
2018-07-21T19:34:45.800Z,5.63
2018-07-21T19:37:19.319Z,5.47
2018-07-21T19:39:47.587Z,6.87
2018-07-21T19:42:15.786Z,6.50
2018-07-21T19:44:44.062Z,6.00
2018-07-21T19:47:12.345Z,6.00
2018-07-21T19:49:40.531Z,6.03
2018-07-21T19:52:08.738Z,6.77
2018-07-21T19:54:36.945Z,7.00
2018-07-21T19:57:05.359Z,6.40
2018-07-21T19:59:33.543Z,6.37
2018-07-21T20:02:01.783Z,6.50
2018-07-21T20:04:29.977Z,6.40
2018-07-21T20:06:58.190Z,6.27
2018-07-21T20:09:26.409Z,6.40
2018-07-21T20:11:54.610Z,7.40
2018-07-21T20:14:22.851Z,8.10
2018-07-21T20:16:51.071Z,7.80
2018-07-21T20:19:19.284Z,8.33
2018-07-21T20:21:47.506Z,8.00
2018-07-21T20:24:16.062Z,8.77
2018-07-21T20:26:44.229Z,9.37
2018-07-21T20:29:12.537Z,8.67
2018-07-21T20:31:40.777Z,9.07
2018-07-21T20:34:08.997Z,8.87
2018-07-21T20:36:37.190Z,7.83
2018-07-21T20:39:07.609Z,8.57
2018-07-21T20:41:35.817Z,9.17
2018-07-21T20:44:04.094Z,8.77
2018-07-21T20:46:32.825Z,8.97
2018-07-21T20:49:01.055Z,9.33
2018-07-21T20:51:29.257Z,8.80
2018-07-21T20:53:57.666Z,9.77
2018-07-21T20:56:25.617Z,8.70
2018-07-21T20:58:53.820Z,9.07
2018-07-21T21:01:22.040Z,8.17
2018-07-21T21:03:50.342Z,7.03
2018-07-21T21:06:18.658Z,7.43
2018-07-21T21:08:47.105Z,7.50
2018-07-21T21:11:15.290Z,8.00
2018-07-21T21:13:43.506Z,7.57
2018-07-21T21:16:11.814Z,7.30
2018-07-21T21:18:40.059Z,7.03
2018-07-21T21:21:08.341Z,7.77
2018-07-21T21:23:36.529Z,8.60
2018-07-21T21:26:04.823Z,9.17
2018-07-21T21:28:33.034Z,10.00
2018-07-21T21:31:01.311Z,9.53
2018-07-21T21:33:29.461Z,9.30
2018-07-21T21:35:57.698Z,11.47
2018-07-21T21:38:25.917Z,12.23
2018-07-21T21:40:54.139Z,13.30
2018-07-21T21:43:22.477Z,12.70
2018-07-21T21:45:50.440Z,15.50
2018-07-21T21:48:18.662Z,15.97
2018-07-21T21:50:46.893Z,13.73
2018-07-21T21:53:15.138Z,15.00
2018-07-21T21:55:43.373Z,18.40
2018-07-21T21:58:11.581Z,25.80
2018-07-21T22:00:57.410Z,21.80
2018-07-21T22:03:25.577Z,24.07
2018-07-21T22:05:53.805Z,23.47
2018-07-21T22:08:22.030Z,26.67
2018-07-21T22:10:50.232Z,28.43
2018-07-21T22:13:18.437Z,28.13
2018-07-21T22:15:46.675Z,27.93
2018-07-21T22:18:14.917Z,29.13
2018-07-21T22:20:43.424Z,32.70
2018-07-21T22:23:11.642Z,30.53
2018-07-21T22:25:39.917Z,33.00
2018-07-21T22:28:08.133Z,29.90
2018-07-21T22:30:36.417Z,31.33
2018-07-21T22:33:04.612Z,34.40
2018-07-21T22:35:33.281Z,55.73
2018-07-21T22:38:02.390Z,30.13
2018-07-21T22:40:30.618Z,30.23
2018-07-21T22:42:59.358Z,32.17
2018-07-21T22:45:27.825Z,34.60
2018-07-21T22:47:56.102Z,33.90
2018-07-21T22:50:24.706Z,34.37
2018-07-21T22:52:52.922Z,34.13
2018-07-21T22:55:21.146Z,30.00
2018-07-21T22:57:49.649Z,31.37
2018-07-21T23:00:17.876Z,32.50
2018-07-21T23:02:46.141Z,33.50
2018-07-21T23:05:14.702Z,31.50
2018-07-21T23:07:42.922Z,37.07
2018-07-21T23:10:11.142Z,33.10
2018-07-21T23:12:39.374Z,33.00
2018-07-21T23:15:08.452Z,31.63
2018-07-21T23:17:36.685Z,33.73
2018-07-21T23:20:05.941Z,31.27
2018-07-21T23:22:34.186Z,27.90
2018-07-21T23:25:02.470Z,29.07
2018-07-21T23:27:30.666Z,28.10
2018-07-21T23:29:58.616Z,31.00
2018-07-21T23:32:26.859Z,34.17
2018-07-21T23:34:55.226Z,32.50
2018-07-21T23:37:23.429Z,32.40
2018-07-21T23:39:51.709Z,31.43
2018-07-21T23:42:19.970Z,32.10
2018-07-21T23:44:48.202Z,29.43
2018-07-21T23:47:16.699Z,30.60
2018-07-21T23:49:44.893Z,29.83
2018-07-21T23:52:13.097Z,29.83
2018-07-21T23:54:41.321Z,31.03
2018-07-21T23:57:09.542Z,30.13
2018-07-21T23:59:37.749Z,27.60
